Gray Court, SC (29645)

4:48 PM EDT on August 02, 2015 (GMT -0400)
Oak Hill Estates | | Change Station
CLOSE
Current Station
Personal Weather Station
Location: Gray Court, SC
Elevation: 761 ft
Nearby Weather Stations

Elev 761 ft 34.59 °N, 82.19 °W | Updated 11 minutes ago

Partly Cloudy
Partly Cloudy
99.3 °F
Feels Like 100 °F
N
2.7
Wind Variable Wind from WNW

Today
High -- | Low -- °F
--% Chance of Precip.
Yesterday
High -- | Low -- °F
Precip. -- in
6:39 AM 8:29 PM
Waning Gibbous, 92% visible
Pressure 29.91 in
Visibility 10.0 miles
Clouds Scattered Clouds 8500 ft
Heat Index 100 °F
Dew Point 59 °F
Humidity 27%
Rainfall 0.00 in
Snow Depth Not available.
UV 5 out of 12
Pollen 5.10 out of 12
Air Quality Not available.
Flu Activity Not available.
METAR KLUX 022035Z AUTO 06004KT 10SM SCT085 33/19 A2991 RMK AO2

More Conditions Fewer Conditions

Pressure 29.91 in
Visibility 10.0 miles
Clouds Scattered Clouds 8500 ft
Heat Index 100 °F
Dew Point 59 °F
Humidity 27%
Rainfall 0.00 in
Snow Depth Not available.
UV 5 out of 12
Pollen 5.10 out of 12
Air Quality Not available.
Flu Activity Not available.
METAR KLUX 022035Z AUTO 06004KT 10SM SCT085 33/19 A2991 RMK AO2

More Conditions Fewer Conditions

10-Day Weather Forecast

×

Almanac

Astronomy

Aug. 02, 2015 Rise Set
Actual Time
Civil Twilight
Nautical Twilight
Astronomical Twilight
Moon
Length of Visible Light
Length of Day
Tomorrow will be .
, % of the Moon is Illuminated

Today's Extremes

State Highs State Lows

Community

WunderPhotos

Upload Photos

1,843,371 photos uploaded!

WunderBlogs® & News

Nearby

Air Quality

  Air Quality AQ Index Pollutant
Not available.

Snow Depth

Station Depth Elevation

Earthquake Activity

City Distance Mag. Time & Date
Minimum magnitude displayed is 2.5.

Coastal Water Temperatures

Place Temperature

Stations

Nearby Weather Stations

Station Location Temp. Windchill Dew Point Humidity Wind Precip. Elev Updated Type